sensor_id;sensor_type;location;lat;lon;timestamp;temperature;humidity
871;DHT22;422;51.280;7.236;2022-12-18T00:02:24;-4.00;99.90
871;DHT22;422;51.280;7.236;2022-12-18T00:04:53;-4.10;99.90
871;DHT22;422;51.280;7.236;2022-12-18T00:07:20;-4.10;99.90
871;DHT22;422;51.280;7.236;2022-12-18T00:09:47;-4.10;99.90
871;DHT22;422;51.280;7.236;2022-12-18T00:12:14;-4.10;99.90
871;DHT22;422;51.280;7.236;2022-12-18T00:14:45;-4.20;99.90
871;DHT22;422;51.280;7.236;2022-12-18T00:17:12;-4.10;99.90
871;DHT22;422;51.280;7.236;2022-12-18T00:19:39;-4.00;99.90
871;DHT22;422;51.280;7.236;2022-12-18T00:22:08;-4.00;99.90
871;DHT22;422;51.280;7.236;2022-12-18T00:24:35;-4.00;99.90
871;DHT22;422;51.280;7.236;2022-12-18T00:27:02;-3.80;99.90
871;DHT22;422;51.280;7.236;2022-12-18T00:29:29;-3.80;99.90
871;DHT22;422;51.280;7.236;2022-12-18T00:31:56;-3.70;99.90
871;DHT22;422;51.280;7.236;2022-12-18T00:34:24;-3.70;99.90
871;DHT22;422;51.280;7.236;2022-12-18T00:36:52;-3.80;99.90
871;DHT22;422;51.280;7.236;2022-12-18T00:39:20;-3.90;99.90
871;DHT22;422;51.280;7.236;2022-12-18T00:41:47;-3.90;99.90
871;DHT22;422;51.280;7.236;2022-12-18T00:44:32;-3.90;99.90
871;DHT22;422;51.280;7.236;2022-12-18T00:46:59;-3.90;99.90
871;DHT22;422;51.280;7.236;2022-12-18T00:49:26;-3.80;99.90
871;DHT22;422;51.280;7.236;2022-12-18T00:51:54;-3.80;99.90
871;DHT22;422;51.280;7.236;2022-12-18T00:54:23;-3.80;99.90
871;DHT22;422;51.280;7.236;2022-12-18T00:56:50;-3.80;99.90
871;DHT22;422;51.280;7.236;2022-12-18T00:59:18;-3.80;99.90
871;DHT22;422;51.280;7.236;2022-12-18T01:01:45;-3.80;99.90
871;DHT22;422;51.280;7.236;2022-12-18T01:04:13;-3.80;99.90
871;DHT22;422;51.280;7.236;2022-12-18T01:06:40;-3.90;99.90
871;DHT22;422;51.280;7.236;2022-12-18T01:09:08;-3.80;99.90
871;DHT22;422;51.280;7.236;2022-12-18T01:11:36;-3.80;99.90
871;DHT22;422;51.280;7.236;2022-12-18T01:14:04;-3.80;99.90
871;DHT22;422;51.280;7.236;2022-12-18T01:16:31;-3.80;99.90
871;DHT22;422;51.280;7.236;2022-12-18T01:18:58;-3.80;99.90
871;DHT22;422;51.280;7.236;2022-12-18T01:21:26;-3.80;99.90
871;DHT22;422;51.280;7.236;2022-12-18T01:23:54;-3.80;99.90
871;DHT22;422;51.280;7.236;2022-12-18T01:26:22;-3.90;99.90
871;DHT22;422;51.280;7.236;2022-12-18T01:28:50;-3.80;99.90
871;DHT22;422;51.280;7.236;2022-12-18T01:31:20;-3.90;99.90
871;DHT22;422;51.280;7.236;2022-12-18T01:33:51;-4.00;99.90
871;DHT22;422;51.280;7.236;2022-12-18T01:36:20;-4.10;99.90
871;DHT22;422;51.280;7.236;2022-12-18T01:38:48;-4.20;99.90
871;DHT22;422;51.280;7.236;2022-12-18T01:41:17;-4.10;99.90
871;DHT22;422;51.280;7.236;2022-12-18T01:43:47;-4.20;99.90
871;DHT22;422;51.280;7.236;2022-12-18T01:46:17;-4.40;99.90
871;DHT22;422;51.280;7.236;2022-12-18T01:48:47;-4.40;99.90
871;DHT22;422;51.280;7.236;2022-12-18T01:51:15;-4.50;99.90
871;DHT22;422;51.280;7.236;2022-12-18T01:53:42;-4.60;99.90
871;DHT22;422;51.280;7.236;2022-12-18T01:56:13;-4.60;99.90
871;DHT22;422;51.280;7.236;2022-12-18T01:58:47;-4.60;99.90
871;DHT22;422;51.280;7.236;2022-12-18T02:01:17;-4.70;99.90
871;DHT22;422;51.280;7.236;2022-12-18T02:03:45;-4.70;99.90
871;DHT22;422;51.280;7.236;2022-12-18T02:06:16;-4.60;99.90
871;DHT22;422;51.280;7.236;2022-12-18T02:09:02;-4.60;1.00
871;DHT22;422;51.280;7.236;2022-12-18T02:11:41;-4.50;1.00
871;DHT22;422;51.280;7.236;2022-12-18T02:14:21;-4.40;1.00
871;DHT22;422;51.280;7.236;2022-12-18T02:16:56;-4.40;1.00
871;DHT22;422;51.280;7.236;2022-12-18T02:19:48;-4.40;99.90
871;DHT22;422;51.280;7.236;2022-12-18T02:22:29;-4.50;99.90
871;DHT22;422;51.280;7.236;2022-12-18T02:25:05;-4.50;99.90
871;DHT22;422;51.280;7.236;2022-12-18T02:27:40;-4.60;99.90
871;DHT22;422;51.280;7.236;2022-12-18T02:30:09;-4.60;99.90
871;DHT22;422;51.280;7.236;2022-12-18T02:32:40;-4.60;99.90
871;DHT22;422;51.280;7.236;2022-12-18T02:35:12;-4.60;1.00
871;DHT22;422;51.280;7.236;2022-12-18T02:37:42;-4.60;1.00
871;DHT22;422;51.280;7.236;2022-12-18T02:40:11;-4.60;1.00
871;DHT22;422;51.280;7.236;2022-12-18T02:42:39;-4.70;1.00
871;DHT22;422;51.280;7.236;2022-12-18T02:45:07;-4.70;1.00
871;DHT22;422;51.280;7.236;2022-12-18T02:47:37;-4.80;1.00
871;DHT22;422;51.280;7.236;2022-12-18T02:50:10;-5.00;1.00
871;DHT22;422;51.280;7.236;2022-12-18T02:52:45;-4.90;1.00
871;DHT22;422;51.280;7.236;2022-12-18T02:55:27;-4.90;1.00
871;DHT22;422;51.280;7.236;2022-12-18T02:58:00;-5.00;1.00
871;DHT22;422;51.280;7.236;2022-12-18T03:00:33;-4.90;1.00
871;DHT22;422;51.280;7.236;2022-12-18T03:03:06;-5.00;1.00
871;DHT22;422;51.280;7.236;2022-12-18T03:05:40;-5.00;1.00
871;DHT22;422;51.280;7.236;2022-12-18T03:08:12;-5.10;1.00
871;DHT22;422;51.280;7.236;2022-12-18T03:10:44;-5.10;1.00
871;DHT22;422;51.280;7.236;2022-12-18T03:13:18;-5.40;1.00
871;DHT22;422;51.280;7.236;2022-12-18T03:15:48;-5.30;1.00
871;DHT22;422;51.280;7.236;2022-12-18T03:18:19;-5.30;1.00
871;DHT22;422;51.280;7.236;2022-12-18T03:20:49;-5.40;1.00
871;DHT22;422;51.280;7.236;2022-12-18T03:23:22;-5.30;1.00
871;DHT22;422;51.280;7.236;2022-12-18T03:25:53;-5.50;1.00
871;DHT22;422;51.280;7.236;2022-12-18T03:28:23;-5.50;1.00
871;DHT22;422;51.280;7.236;2022-12-18T03:30:56;-5.50;1.00
871;DHT22;422;51.280;7.236;2022-12-18T03:33:26;-5.50;1.00
871;DHT22;422;51.280;7.236;2022-12-18T03:35:55;-5.40;1.00
871;DHT22;422;51.280;7.236;2022-12-18T03:38:23;-5.30;1.00
871;DHT22;422;51.280;7.236;2022-12-18T03:40:58;-5.30;1.00
871;DHT22;422;51.280;7.236;2022-12-18T03:43:35;-5.40;1.00
871;DHT22;422;51.280;7.236;2022-12-18T03:46:05;-5.30;1.00
871;DHT22;422;51.280;7.236;2022-12-18T03:48:37;-5.20;1.00
871;DHT22;422;51.280;7.236;2022-12-18T03:51:08;-5.20;1.00
871;DHT22;422;51.280;7.236;2022-12-18T03:53:41;-5.30;1.00
871;DHT22;422;51.280;7.236;2022-12-18T03:56:12;-5.40;1.00
871;DHT22;422;51.280;7.236;2022-12-18T03:58:43;-5.40;1.00
871;DHT22;422;51.280;7.236;2022-12-18T04:01:13;-5.40;1.00
871;DHT22;422;51.280;7.236;2022-12-18T04:03:42;-5.30;1.00
871;DHT22;422;51.280;7.236;2022-12-18T04:06:12;-5.40;1.00
871;DHT22;422;51.280;7.236;2022-12-18T04:08:41;-5.30;1.00
871;DHT22;422;51.280;7.236;2022-12-18T04:11:08;-5.20;1.00
871;DHT22;422;51.280;7.236;2022-12-18T04:13:36;-4.90;1.00
871;DHT22;422;51.280;7.236;2022-12-18T04:16:06;-4.80;1.00
871;DHT22;422;51.280;7.236;2022-12-18T04:18:35;-4.80;1.00
871;DHT22;422;51.280;7.236;2022-12-18T04:21:03;-4.90;1.00
871;DHT22;422;51.280;7.236;2022-12-18T04:23:30;-4.80;1.00
871;DHT22;422;51.280;7.236;2022-12-18T04:25:57;-4.90;1.00
871;DHT22;422;51.280;7.236;2022-12-18T04:28:24;-4.90;1.00
871;DHT22;422;51.280;7.236;2022-12-18T04:30:51;-4.90;1.00
871;DHT22;422;51.280;7.236;2022-12-18T04:33:20;-5.00;1.00
871;DHT22;422;51.280;7.236;2022-12-18T04:35:47;-5.00;1.00
871;DHT22;422;51.280;7.236;2022-12-18T04:38:14;-5.10;1.00
871;DHT22;422;51.280;7.236;2022-12-18T04:40:42;-5.10;1.00
871;DHT22;422;51.280;7.236;2022-12-18T04:43:10;-5.10;1.00
871;DHT22;422;51.280;7.236;2022-12-18T04:45:37;-4.90;1.00
871;DHT22;422;51.280;7.236;2022-12-18T04:48:04;-4.80;1.00
871;DHT22;422;51.280;7.236;2022-12-18T04:50:33;-4.90;1.00
871;DHT22;422;51.280;7.236;2022-12-18T04:53:00;-4.90;1.00
871;DHT22;422;51.280;7.236;2022-12-18T04:55:28;-4.90;1.00
871;DHT22;422;51.280;7.236;2022-12-18T04:57:55;-4.90;1.00
871;DHT22;422;51.280;7.236;2022-12-18T05:00:22;-4.80;1.00
871;DHT22;422;51.280;7.236;2022-12-18T05:02:49;-4.80;1.00
871;DHT22;422;51.280;7.236;2022-12-18T05:05:17;-4.90;1.00
871;DHT22;422;51.280;7.236;2022-12-18T05:07:45;-4.90;1.00
871;DHT22;422;51.280;7.236;2022-12-18T05:10:13;-4.90;1.00
871;DHT22;422;51.280;7.236;2022-12-18T05:12:40;-4.90;1.00
871;DHT22;422;51.280;7.236;2022-12-18T05:15:21;-4.80;1.00
871;DHT22;422;51.280;7.236;2022-12-18T05:17:48;-4.70;1.00
871;DHT22;422;51.280;7.236;2022-12-18T05:20:15;-4.70;1.00
871;DHT22;422;51.280;7.236;2022-12-18T05:22:45;-4.80;1.00
871;DHT22;422;51.280;7.236;2022-12-18T05:25:12;-4.80;1.00
871;DHT22;422;51.280;7.236;2022-12-18T05:27:39;-4.70;1.00
871;DHT22;422;51.280;7.236;2022-12-18T05:30:08;-4.60;1.00
871;DHT22;422;51.280;7.236;2022-12-18T05:32:35;-4.70;1.00
871;DHT22;422;51.280;7.236;2022-12-18T05:35:03;-4.60;1.00
871;DHT22;422;51.280;7.236;2022-12-18T05:37:30;-4.60;1.00
871;DHT22;422;51.280;7.236;2022-12-18T05:39:59;-4.70;1.00
871;DHT22;422;51.280;7.236;2022-12-18T05:42:26;-4.70;1.00
871;DHT22;422;51.280;7.236;2022-12-18T05:44:53;-4.50;1.00
871;DHT22;422;51.280;7.236;2022-12-18T05:47:20;-4.50;1.00
871;DHT22;422;51.280;7.236;2022-12-18T05:49:47;-4.50;1.00
871;DHT22;422;51.280;7.236;2022-12-18T05:52:14;-4.60;1.00
871;DHT22;422;51.280;7.236;2022-12-18T05:54:42;-4.70;1.00
871;DHT22;422;51.280;7.236;2022-12-18T05:57:10;-4.60;1.00
871;DHT22;422;51.280;7.236;2022-12-18T05:59:37;-4.60;1.00
871;DHT22;422;51.280;7.236;2022-12-18T06:02:05;-4.70;1.00
871;DHT22;422;51.280;7.236;2022-12-18T06:04:32;-4.60;1.00
871;DHT22;422;51.280;7.236;2022-12-18T06:06:59;-4.50;1.00
871;DHT22;422;51.280;7.236;2022-12-18T06:09:29;-4.40;1.00
871;DHT22;422;51.280;7.236;2022-12-18T06:11:56;-4.30;1.00
871;DHT22;422;51.280;7.236;2022-12-18T06:14:25;-4.50;1.00
871;DHT22;422;51.280;7.236;2022-12-18T06:16:52;-4.50;1.00
871;DHT22;422;51.280;7.236;2022-12-18T06:19:20;-4.70;1.00
871;DHT22;422;51.280;7.236;2022-12-18T06:21:47;-4.50;1.00
871;DHT22;422;51.280;7.236;2022-12-18T06:24:15;-4.40;1.00
871;DHT22;422;51.280;7.236;2022-12-18T06:26:42;-4.40;1.00
871;DHT22;422;51.280;7.236;2022-12-18T06:29:09;-4.50;1.00
871;DHT22;422;51.280;7.236;2022-12-18T06:31:37;-4.40;1.00
871;DHT22;422;51.280;7.236;2022-12-18T06:34:05;-4.20;99.90
871;DHT22;422;51.280;7.236;2022-12-18T06:36:32;-4.30;99.90
871;DHT22;422;51.280;7.236;2022-12-18T06:38:59;-4.30;99.90
871;DHT22;422;51.280;7.236;2022-12-18T06:41:27;-4.30;99.90
871;DHT22;422;51.280;7.236;2022-12-18T06:43:54;-4.40;99.90
871;DHT22;422;51.280;7.236;2022-12-18T06:46:21;-4.20;99.90
871;DHT22;422;51.280;7.236;2022-12-18T06:48:50;-4.00;99.90
871;DHT22;422;51.280;7.236;2022-12-18T06:51:19;-3.80;99.90
871;DHT22;422;51.280;7.236;2022-12-18T06:53:46;-3.80;99.90
871;DHT22;422;51.280;7.236;2022-12-18T06:56:13;-3.70;99.90
871;DHT22;422;51.280;7.236;2022-12-18T06:58:41;-3.60;99.90
871;DHT22;422;51.280;7.236;2022-12-18T07:01:10;-3.60;99.90
871;DHT22;422;51.280;7.236;2022-12-18T07:03:38;-3.60;99.90
871;DHT22;422;51.280;7.236;2022-12-18T07:06:13;-3.60;99.90
871;DHT22;422;51.280;7.236;2022-12-18T07:08:41;-3.70;99.90
871;DHT22;422;51.280;7.236;2022-12-18T07:11:08;-3.60;99.90
871;DHT22;422;51.280;7.236;2022-12-18T07:13:36;-3.60;99.90
871;DHT22;422;51.280;7.236;2022-12-18T07:16:05;-3.50;99.90
871;DHT22;422;51.280;7.236;2022-12-18T07:18:33;-3.50;99.90
871;DHT22;422;51.280;7.236;2022-12-18T07:21:03;-3.50;99.90
871;DHT22;422;51.280;7.236;2022-12-18T07:23:32;-3.40;99.90
871;DHT22;422;51.280;7.236;2022-12-18T07:26:01;-3.30;99.90
871;DHT22;422;51.280;7.236;2022-12-18T07:28:29;-3.30;99.90
871;DHT22;422;51.280;7.236;2022-12-18T07:30:56;-3.20;99.90
871;DHT22;422;51.280;7.236;2022-12-18T07:33:24;-3.30;99.90
871;DHT22;422;51.280;7.236;2022-12-18T07:35:51;-3.20;99.90
871;DHT22;422;51.280;7.236;2022-12-18T07:38:19;-3.10;99.90
871;DHT22;422;51.280;7.236;2022-12-18T07:40:47;-3.00;99.90
871;DHT22;422;51.280;7.236;2022-12-18T07:43:14;-2.90;99.90
871;DHT22;422;51.280;7.236;2022-12-18T07:45:42;-2.90;99.90
871;DHT22;422;51.280;7.236;2022-12-18T07:48:09;-2.80;99.90
871;DHT22;422;51.280;7.236;2022-12-18T07:50:37;-2.70;99.90
871;DHT22;422;51.280;7.236;2022-12-18T07:53:04;-2.60;99.90
871;DHT22;422;51.280;7.236;2022-12-18T07:55:31;-2.50;99.90
871;DHT22;422;51.280;7.236;2022-12-18T07:58:02;-2.40;99.90
871;DHT22;422;51.280;7.236;2022-12-18T08:00:29;-2.30;99.90
871;DHT22;422;51.280;7.236;2022-12-18T08:02:58;-2.20;99.90
871;DHT22;422;51.280;7.236;2022-12-18T08:05:25;-2.10;99.90
871;DHT22;422;51.280;7.236;2022-12-18T08:07:52;-2.00;99.90
871;DHT22;422;51.280;7.236;2022-12-18T08:10:20;-1.80;99.90
871;DHT22;422;51.280;7.236;2022-12-18T08:12:49;-1.70;99.90
871;DHT22;422;51.280;7.236;2022-12-18T08:15:18;-1.50;99.90
871;DHT22;422;51.280;7.236;2022-12-18T08:17:45;-1.50;99.90
871;DHT22;422;51.280;7.236;2022-12-18T08:20:12;-1.40;99.90
871;DHT22;422;51.280;7.236;2022-12-18T08:22:41;-1.40;99.90
871;DHT22;422;51.280;7.236;2022-12-18T08:25:08;-1.40;99.90
871;DHT22;422;51.280;7.236;2022-12-18T08:27:35;-1.30;99.90
871;DHT22;422;51.280;7.236;2022-12-18T08:30:03;-1.20;99.90
871;DHT22;422;51.280;7.236;2022-12-18T08:32:32;-1.00;99.90
871;DHT22;422;51.280;7.236;2022-12-18T08:35:00;-0.80;99.90
871;DHT22;422;51.280;7.236;2022-12-18T08:37:27;-0.70;99.90
871;DHT22;422;51.280;7.236;2022-12-18T08:39:54;-0.60;99.90
871;DHT22;422;51.280;7.236;2022-12-18T08:42:21;-0.40;99.90
871;DHT22;422;51.280;7.236;2022-12-18T08:45:07;-0.30;99.90
871;DHT22;422;51.280;7.236;2022-12-18T08:47:36;-0.20;99.90
871;DHT22;422;51.280;7.236;2022-12-18T08:50:03;-0.20;99.90
871;DHT22;422;51.280;7.236;2022-12-18T08:52:32;-0.10;99.90
871;DHT22;422;51.280;7.236;2022-12-18T08:54:59;0.00;99.90
871;DHT22;422;51.280;7.236;2022-12-18T08:57:26;0.10;99.90
871;DHT22;422;51.280;7.236;2022-12-18T08:59:53;0.20;99.90
871;DHT22;422;51.280;7.236;2022-12-18T09:02:21;0.30;99.90
871;DHT22;422;51.280;7.236;2022-12-18T09:04:50;0.40;99.90
871;DHT22;422;51.280;7.236;2022-12-18T09:07:17;0.50;99.90
871;DHT22;422;51.280;7.236;2022-12-18T09:09:44;0.50;99.90
871;DHT22;422;51.280;7.236;2022-12-18T09:12:11;0.60;99.90
871;DHT22;422;51.280;7.236;2022-12-18T09:14:38;0.60;99.90
871;DHT22;422;51.280;7.236;2022-12-18T09:17:06;0.70;99.90
871;DHT22;422;51.280;7.236;2022-12-18T09:19:33;0.70;99.90
871;DHT22;422;51.280;7.236;2022-12-18T09:22:01;0.70;99.90
871;DHT22;422;51.280;7.236;2022-12-18T09:24:29;0.70;99.90
871;DHT22;422;51.280;7.236;2022-12-18T09:26:56;0.80;99.90
871;DHT22;422;51.280;7.236;2022-12-18T09:29:23;0.80;99.90
871;DHT22;422;51.280;7.236;2022-12-18T09:31:50;0.80;99.90
871;DHT22;422;51.280;7.236;2022-12-18T09:34:17;0.90;99.90
871;DHT22;422;51.280;7.236;2022-12-18T09:36:46;1.00;99.90
871;DHT22;422;51.280;7.236;2022-12-18T09:39:15;1.10;99.90
871;DHT22;422;51.280;7.236;2022-12-18T09:41:48;1.40;99.90
871;DHT22;422;51.280;7.236;2022-12-18T09:44:25;1.60;99.90
871;DHT22;422;51.280;7.236;2022-12-18T09:47:05;1.70;99.90
871;DHT22;422;51.280;7.236;2022-12-18T09:49:35;1.70;99.90
871;DHT22;422;51.280;7.236;2022-12-18T09:52:08;1.70;99.90
871;DHT22;422;51.280;7.236;2022-12-18T09:54:39;1.80;99.90
871;DHT22;422;51.280;7.236;2022-12-18T09:57:13;1.90;99.90
871;DHT22;422;51.280;7.236;2022-12-18T09:59:43;1.90;99.90
871;DHT22;422;51.280;7.236;2022-12-18T10:02:15;1.80;99.90
871;DHT22;422;51.280;7.236;2022-12-18T10:04:43;1.80;99.90
871;DHT22;422;51.280;7.236;2022-12-18T10:07:17;1.90;99.90
871;DHT22;422;51.280;7.236;2022-12-18T10:09:55;1.80;99.90
871;DHT22;422;51.280;7.236;2022-12-18T10:12:28;1.90;99.90
871;DHT22;422;51.280;7.236;2022-12-18T10:15:02;1.90;99.90
871;DHT22;422;51.280;7.236;2022-12-18T10:17:40;1.90;99.90
871;DHT22;422;51.280;7.236;2022-12-18T10:20:13;1.90;99.90
871;DHT22;422;51.280;7.236;2022-12-18T10:22:50;1.90;99.90
871;DHT22;422;51.280;7.236;2022-12-18T10:25:24;1.90;99.90
871;DHT22;422;51.280;7.236;2022-12-18T10:27:55;1.90;99.90
871;DHT22;422;51.280;7.236;2022-12-18T10:30:24;2.00;99.90
871;DHT22;422;51.280;7.236;2022-12-18T10:32:52;2.10;99.90
871;DHT22;422;51.280;7.236;2022-12-18T10:35:21;2.10;99.90
871;DHT22;422;51.280;7.236;2022-12-18T10:38:23;2.10;99.90
871;DHT22;422;51.280;7.236;2022-12-18T10:40:54;2.10;99.90
871;DHT22;422;51.280;7.236;2022-12-18T10:43:24;2.20;99.90
871;DHT22;422;51.280;7.236;2022-12-18T10:46:00;2.20;99.90
871;DHT22;422;51.280;7.236;2022-12-18T10:48:28;2.20;99.90
871;DHT22;422;51.280;7.236;2022-12-18T10:50:57;2.30;99.90
871;DHT22;422;51.280;7.236;2022-12-18T10:53:26;2.30;99.90
871;DHT22;422;51.280;7.236;2022-12-18T10:55:57;2.50;99.90
871;DHT22;422;51.280;7.236;2022-12-18T10:58:29;2.50;99.90
871;DHT22;422;51.280;7.236;2022-12-18T11:01:07;2.60;99.90
871;DHT22;422;51.280;7.236;2022-12-18T11:03:36;2.70;99.90
871;DHT22;422;51.280;7.236;2022-12-18T11:06:06;2.70;99.90
871;DHT22;422;51.280;7.236;2022-12-18T11:08:34;2.80;99.90
871;DHT22;422;51.280;7.236;2022-12-18T11:11:06;2.90;99.90
871;DHT22;422;51.280;7.236;2022-12-18T11:13:36;2.80;99.90
871;DHT22;422;51.280;7.236;2022-12-18T11:16:05;2.90;99.90
871;DHT22;422;51.280;7.236;2022-12-18T11:18:34;2.80;99.90
871;DHT22;422;51.280;7.236;2022-12-18T11:21:06;2.80;99.90
871;DHT22;422;51.280;7.236;2022-12-18T11:23:36;2.90;99.90
871;DHT22;422;51.280;7.236;2022-12-18T11:26:05;2.90;99.90
871;DHT22;422;51.280;7.236;2022-12-18T11:28:37;2.90;99.90
871;DHT22;422;51.280;7.236;2022-12-18T11:31:15;2.80;99.90
871;DHT22;422;51.280;7.236;2022-12-18T11:33:48;2.90;99.90
871;DHT22;422;51.280;7.236;2022-12-18T11:36:19;3.00;99.90
871;DHT22;422;51.280;7.236;2022-12-18T11:38:49;2.90;99.90
871;DHT22;422;51.280;7.236;2022-12-18T11:41:23;3.00;99.90
871;DHT22;422;51.280;7.236;2022-12-18T11:44:15;3.00;99.90
871;DHT22;422;51.280;7.236;2022-12-18T11:46:49;3.10;99.90
871;DHT22;422;51.280;7.236;2022-12-18T11:49:22;3.00;99.90
871;DHT22;422;51.280;7.236;2022-12-18T11:51:55;3.10;99.90
871;DHT22;422;51.280;7.236;2022-12-18T11:54:25;3.20;99.90
871;DHT22;422;51.280;7.236;2022-12-18T11:56:58;3.40;99.90
871;DHT22;422;51.280;7.236;2022-12-18T11:59:35;3.20;99.90
871;DHT22;422;51.280;7.236;2022-12-18T12:02:28;3.30;99.90
871;DHT22;422;51.280;7.236;2022-12-18T12:05:18;3.20;99.90
871;DHT22;422;51.280;7.236;2022-12-18T12:07:55;3.20;99.90
871;DHT22;422;51.280;7.236;2022-12-18T12:10:36;3.20;99.90
871;DHT22;422;51.280;7.236;2022-12-18T12:13:19;3.10;99.90
871;DHT22;422;51.280;7.236;2022-12-18T12:15:59;3.00;99.90
871;DHT22;422;51.280;7.236;2022-12-18T12:18:41;3.00;99.90
871;DHT22;422;51.280;7.236;2022-12-18T12:21:18;2.90;99.90
871;DHT22;422;51.280;7.236;2022-12-18T12:23:55;2.90;99.90
871;DHT22;422;51.280;7.236;2022-12-18T12:26:31;2.80;99.90
871;DHT22;422;51.280;7.236;2022-12-18T12:29:10;2.70;99.90
871;DHT22;422;51.280;7.236;2022-12-18T12:31:54;2.70;99.90
871;DHT22;422;51.280;7.236;2022-12-18T12:34:29;2.60;99.90
871;DHT22;422;51.280;7.236;2022-12-18T12:37:11;2.50;99.90
871;DHT22;422;51.280;7.236;2022-12-18T12:39:44;2.40;99.90
871;DHT22;422;51.280;7.236;2022-12-18T12:42:16;2.30;99.90
871;DHT22;422;51.280;7.236;2022-12-18T12:45:06;2.20;99.90
871;DHT22;422;51.280;7.236;2022-12-18T12:47:42;2.10;99.90
871;DHT22;422;51.280;7.236;2022-12-18T12:50:14;2.10;99.90
871;DHT22;422;51.280;7.236;2022-12-18T12:52:45;2.00;99.90
871;DHT22;422;51.280;7.236;2022-12-18T12:55:17;2.00;99.90
871;DHT22;422;51.280;7.236;2022-12-18T12:57:52;2.00;99.90
871;DHT22;422;51.280;7.236;2022-12-18T13:00:22;2.00;99.90
871;DHT22;422;51.280;7.236;2022-12-18T13:02:54;1.90;99.90
871;DHT22;422;51.280;7.236;2022-12-18T13:05:29;1.90;99.90
871;DHT22;422;51.280;7.236;2022-12-18T13:08:02;1.90;99.90
871;DHT22;422;51.280;7.236;2022-12-18T13:10:35;1.80;99.90
871;DHT22;422;51.280;7.236;2022-12-18T13:13:04;1.80;99.90
871;DHT22;422;51.280;7.236;2022-12-18T13:15:36;1.70;99.90
871;DHT22;422;51.280;7.236;2022-12-18T13:18:13;1.80;99.90
871;DHT22;422;51.280;7.236;2022-12-18T13:20:43;1.70;99.90
871;DHT22;422;51.280;7.236;2022-12-18T13:23:28;1.70;99.90
871;DHT22;422;51.280;7.236;2022-12-18T13:25:57;1.70;99.90
871;DHT22;422;51.280;7.236;2022-12-18T13:28:51;1.60;99.90
871;DHT22;422;51.280;7.236;2022-12-18T13:34:37;1.50;99.90
871;DHT22;422;51.280;7.236;2022-12-18T13:43:31;1.50;99.90
871;DHT22;422;51.280;7.236;2022-12-18T13:46:02;1.60;99.90
871;DHT22;422;51.280;7.236;2022-12-18T13:48:31;1.60;99.90
871;DHT22;422;51.280;7.236;2022-12-18T13:51:03;1.50;99.90
871;DHT22;422;51.280;7.236;2022-12-18T13:53:34;1.50;99.90
871;DHT22;422;51.280;7.236;2022-12-18T13:56:03;1.30;99.90
871;DHT22;422;51.280;7.236;2022-12-18T13:58:31;1.20;99.90
871;DHT22;422;51.280;7.236;2022-12-18T14:00:58;1.20;99.90
871;DHT22;422;51.280;7.236;2022-12-18T14:03:29;1.20;99.90
871;DHT22;422;51.280;7.236;2022-12-18T14:06:01;1.10;99.90
871;DHT22;422;51.280;7.236;2022-12-18T14:08:37;1.10;99.90
871;DHT22;422;51.280;7.236;2022-12-18T14:11:06;1.00;99.90
871;DHT22;422;51.280;7.236;2022-12-18T14:13:36;0.90;99.90
871;DHT22;422;51.280;7.236;2022-12-18T14:16:05;0.90;99.90
871;DHT22;422;51.280;7.236;2022-12-18T14:18:42;0.80;99.90
871;DHT22;422;51.280;7.236;2022-12-18T14:21:20;0.70;99.90
871;DHT22;422;51.280;7.236;2022-12-18T14:23:48;0.70;99.90
871;DHT22;422;51.280;7.236;2022-12-18T14:26:25;0.70;99.90
871;DHT22;422;51.280;7.236;2022-12-18T14:28:54;0.70;99.90
871;DHT22;422;51.280;7.236;2022-12-18T14:31:24;0.70;99.90
871;DHT22;422;51.280;7.236;2022-12-18T14:33:52;0.70;99.90
871;DHT22;422;51.280;7.236;2022-12-18T14:36:22;0.60;99.90
871;DHT22;422;51.280;7.236;2022-12-18T14:38:52;0.60;99.90
871;DHT22;422;51.280;7.236;2022-12-18T14:41:21;0.70;99.90
871;DHT22;422;51.280;7.236;2022-12-18T14:43:50;0.60;99.90
871;DHT22;422;51.280;7.236;2022-12-18T14:46:30;0.60;99.90
871;DHT22;422;51.280;7.236;2022-12-18T14:48:58;0.70;99.90
871;DHT22;422;51.280;7.236;2022-12-18T14:51:32;0.50;99.90
871;DHT22;422;51.280;7.236;2022-12-18T14:54:01;0.50;99.90
871;DHT22;422;51.280;7.236;2022-12-18T14:56:30;0.50;99.90
871;DHT22;422;51.280;7.236;2022-12-18T14:58:59;0.50;99.90
871;DHT22;422;51.280;7.236;2022-12-18T15:01:29;0.50;99.90
871;DHT22;422;51.280;7.236;2022-12-18T15:03:58;0.40;99.90
871;DHT22;422;51.280;7.236;2022-12-18T15:06:33;0.40;99.90
871;DHT22;422;51.280;7.236;2022-12-18T15:09:03;0.40;99.90
871;DHT22;422;51.280;7.236;2022-12-18T15:11:42;0.40;99.90
871;DHT22;422;51.280;7.236;2022-12-18T15:14:33;0.30;99.90
871;DHT22;422;51.280;7.236;2022-12-18T15:17:03;0.30;99.90
871;DHT22;422;51.280;7.236;2022-12-18T15:19:37;0.30;99.90
871;DHT22;422;51.280;7.236;2022-12-18T15:22:21;0.30;99.90
871;DHT22;422;51.280;7.236;2022-12-18T15:24:49;0.40;99.90
871;DHT22;422;51.280;7.236;2022-12-18T15:27:27;0.20;99.90
871;DHT22;422;51.280;7.236;2022-12-18T15:30:19;0.20;99.90
871;DHT22;422;51.280;7.236;2022-12-18T15:32:48;0.10;99.90
871;DHT22;422;51.280;7.236;2022-12-18T15:35:18;0.10;99.90
871;DHT22;422;51.280;7.236;2022-12-18T15:37:47;0.10;99.90
871;DHT22;422;51.280;7.236;2022-12-18T15:40:16;0.00;99.90
871;DHT22;422;51.280;7.236;2022-12-18T15:42:44;0.00;99.90
871;DHT22;422;51.280;7.236;2022-12-18T15:45:29;0.00;99.90
871;DHT22;422;51.280;7.236;2022-12-18T15:47:57;0.00;99.90
871;DHT22;422;51.280;7.236;2022-12-18T15:50:24;-0.10;99.90
871;DHT22;422;51.280;7.236;2022-12-18T15:52:55;-0.10;99.90
871;DHT22;422;51.280;7.236;2022-12-18T15:55:23;-0.20;99.90
871;DHT22;422;51.280;7.236;2022-12-18T15:58:09;-0.20;99.90
871;DHT22;422;51.280;7.236;2022-12-18T16:00:38;-0.20;99.90
871;DHT22;422;51.280;7.236;2022-12-18T16:03:06;-0.20;99.90
871;DHT22;422;51.280;7.236;2022-12-18T16:05:33;-0.20;99.90
871;DHT22;422;51.280;7.236;2022-12-18T16:08:02;-0.30;99.90
871;DHT22;422;51.280;7.236;2022-12-18T16:10:29;-0.30;99.90
871;DHT22;422;51.280;7.236;2022-12-18T16:12:57;-0.30;99.90
871;DHT22;422;51.280;7.236;2022-12-18T16:15:24;-0.30;99.90
871;DHT22;422;51.280;7.236;2022-12-18T16:17:51;-0.40;99.90
871;DHT22;422;51.280;7.236;2022-12-18T16:20:20;-0.30;99.90
871;DHT22;422;51.280;7.236;2022-12-18T16:22:48;-0.30;99.90
871;DHT22;422;51.280;7.236;2022-12-18T16:25:22;-0.30;99.90
871;DHT22;422;51.280;7.236;2022-12-18T16:27:51;-0.40;99.90
871;DHT22;422;51.280;7.236;2022-12-18T16:30:22;-0.40;99.90
871;DHT22;422;51.280;7.236;2022-12-18T16:32:49;-0.40;99.90
871;DHT22;422;51.280;7.236;2022-12-18T16:35:17;-0.40;99.90
871;DHT22;422;51.280;7.236;2022-12-18T16:37:44;-0.40;99.90
871;DHT22;422;51.280;7.236;2022-12-18T16:40:13;-0.40;99.90
871;DHT22;422;51.280;7.236;2022-12-18T16:42:45;-0.40;99.90
871;DHT22;422;51.280;7.236;2022-12-18T16:45:14;-0.50;99.90
871;DHT22;422;51.280;7.236;2022-12-18T16:47:42;-0.50;99.90
871;DHT22;422;51.280;7.236;2022-12-18T16:50:09;-0.50;99.90
871;DHT22;422;51.280;7.236;2022-12-18T16:52:37;-0.50;99.90
871;DHT22;422;51.280;7.236;2022-12-18T16:55:05;-0.50;99.90
871;DHT22;422;51.280;7.236;2022-12-18T16:57:32;-0.50;99.90
871;DHT22;422;51.280;7.236;2022-12-18T17:00:01;-0.50;99.90
871;DHT22;422;51.280;7.236;2022-12-18T17:02:28;-0.50;99.90
871;DHT22;422;51.280;7.236;2022-12-18T17:04:56;-0.60;99.90
871;DHT22;422;51.280;7.236;2022-12-18T17:07:24;-0.60;99.90
871;DHT22;422;51.280;7.236;2022-12-18T17:09:52;-0.60;99.90
871;DHT22;422;51.280;7.236;2022-12-18T17:12:20;-0.60;99.90
871;DHT22;422;51.280;7.236;2022-12-18T17:14:47;-0.60;99.90
871;DHT22;422;51.280;7.236;2022-12-18T17:17:16;-0.60;99.90